Time;durP1;ratioP1;P1;durP2;ratioP2;P2;SDS_P1;SDS_P2;PMS_P1;PMS_P2;Temp;Humidity;BMP_temperature;BMP_pressure;BME280_temperature;BME280_humidity;BME280_pressure;Samples;Min_cycle;Max_cycle;Signal;HPM_P1;HPM_P2
2023/08/26 00:00:11;;;;;;;3.00;1.97;;;;;;;24.30;84.15;95334.50;5071020;28;20472;-55
2023/08/26 00:02:41;;;;;;;0.70;0.70;;;;;;;24.26;84.40;95341.78;5071457;28;20961;-55
2023/08/26 00:05:27;;;;;;;0.60;0.50;;;;;;;23.96;84.60;95304.34;5071687;28;20441;-54
2023/08/26 00:07:56;;;;;;;0.67;0.67;;;;;;;24.18;84.67;95338.13;5071805;28;20564;-55
2023/08/26 00:10:25;;;;;;;0.87;0.70;;;;;;;24.25;84.68;95335.56;5071645;28;20448;-55
2023/08/26 00:12:53;;;;;;;3.07;0.97;;;;;;;24.29;84.33;95327.50;5071400;28;20473;-55
2023/08/26 00:15:21;;;;;;;0.83;0.83;;;;;;;24.07;85.51;95330.88;5071355;28;20449;-55
2023/08/26 00:17:51;;;;;;;0.60;0.60;;;;;;;24.09;85.47;95325.91;5071123;28;20441;-55
2023/08/26 00:20:21;;;;;;;0.47;0.30;;;;;;;24.11;85.08;95335.25;5071575;28;20785;-55
2023/08/26 00:22:50;;;;;;;0.60;0.60;;;;;;;24.14;85.07;95331.03;5071835;28;20433;-55
2023/08/26 00:25:19;;;;;;;0.63;0.60;;;;;;;24.13;85.16;95318.66;5071154;28;20491;-55
2023/08/26 00:27:47;;;;;;;2.10;0.77;;;;;;;23.97;85.56;95324.09;5071120;28;20473;-55
2023/08/26 00:30:15;;;;;;;0.90;0.50;;;;;;;24.01;86.08;95327.66;5071310;28;20798;-55
2023/08/26 00:32:44;;;;;;;0.77;0.77;;;;;;;23.79;85.91;95326.41;5070497;28;20537;-55
2023/08/26 00:35:13;;;;;;;0.73;0.60;;;;;;;23.83;87.98;95327.25;5070991;28;20445;-55
2023/08/26 00:37:42;;;;;;;1.23;0.70;;;;;;;23.80;86.93;95333.41;5071217;28;20491;-54
2023/08/26 00:40:11;;;;;;;0.60;0.60;;;;;;;23.60;88.60;95322.88;5070844;28;20925;-54
2023/08/26 00:42:40;;;;;;;0.90;0.80;;;;;;;23.69;88.12;95315.31;5071172;28;20457;-54
2023/08/26 00:45:09;;;;;;;2.00;0.47;;;;;;;23.94;87.01;95319.38;5070863;28;20440;-55
2023/08/26 00:47:38;;;;;;;0.63;0.63;;;;;;;23.98;86.71;95322.97;5070574;28;20442;-55
2023/08/26 00:50:07;;;;;;;1.57;1.47;;;;;;;23.86;86.01;95294.06;5074623;28;20430;-55
2023/08/26 00:52:38;;;;;;;0.60;0.60;;;;;;;24.09;84.52;95317.78;5074746;28;20461;-56
2023/08/26 00:55:10;;;;;;;0.60;0.40;;;;;;;23.92;84.69;95317.03;5074820;28;20434;-55
2023/08/26 00:57:41;;;;;;;0.50;0.40;;;;;;;23.90;84.79;95307.69;5074587;28;20524;-55
2023/08/26 01:00:10;;;;;;;0.70;0.50;;;;;;;23.90;86.65;95311.19;5049150;28;20441;-55
2023/08/26 01:02:38;;;;;;;0.40;0.30;;;;;;;23.79;87.22;95307.44;5073755;28;20513;-55
2023/08/26 01:05:07;;;;;;;0.60;0.50;;;;;;;23.68;87.52;95301.00;5074875;28;20436;-56
2023/08/26 01:07:37;;;;;;;0.50;0.37;;;;;;;23.62;87.76;95274.59;5073741;28;20469;-55
2023/08/26 01:10:07;;;;;;;0.80;0.80;;;;;;;23.75;87.58;95298.47;5074944;28;20448;-55
2023/08/26 01:12:57;;;;;;;2.40;1.13;;;;;;;23.80;88.15;95294.72;5074049;28;20448;-55
2023/08/26 01:15:27;;;;;;;1.10;1.10;;;;;;;23.87;87.70;95295.66;5074466;28;20437;-54
2023/08/26 01:17:56;;;;;;;4.27;1.13;;;;;;;23.73;89.65;95291.84;5061051;28;20441;-55
2023/08/26 01:20:26;;;;;;;2.30;0.97;;;;;;;22.61;97.24;95206.84;5074347;28;20449;-55
2023/08/26 01:22:59;;;;;;;1.47;1.37;;;;;;;23.13;99.50;95295.81;5074259;28;20502;-55
2023/08/26 01:25:29;;;;;;;0.83;0.50;;;;;;;23.46;96.72;95300.88;5073787;28;20451;-54
2023/08/26 01:27:58;;;;;;;0.60;0.50;;;;;;;23.50;96.16;95297.13;5073959;28;20464;-55
2023/08/26 01:30:29;;;;;;;1.13;0.90;;;;;;;23.45;96.86;95297.41;5074174;28;20445;-55
2023/08/26 01:33:04;;;;;;;1.47;1.37;;;;;;;23.19;100.00;95299.81;5074298;28;20429;-55
2023/08/26 01:35:36;;;;;;;2.10;1.27;;;;;;;23.33;97.96;95290.13;5073137;28;20433;-55
2023/08/26 01:38:05;;;;;;;1.07;0.97;;;;;;;23.43;96.97;95290.78;5073962;28;20441;-55
2023/08/26 01:40:35;;;;;;;0.50;0.40;;;;;;;23.51;96.56;95304.09;5073650;28;20467;-55
2023/08/26 01:43:04;;;;;;;0.70;0.50;;;;;;;23.18;96.70;95247.66;5073411;28;20467;-54
2023/08/26 01:45:32;;;;;;;1.13;1.03;;;;;;;23.38;98.28;95297.22;5073300;28;20524;-54
2023/08/26 01:48:01;;;;;;;1.10;1.00;;;;;;;23.47;98.55;95299.75;5072473;28;20491;-54
2023/08/26 01:50:29;;;;;;;0.50;0.40;;;;;;;23.45;99.09;95297.41;5073080;28;20516;-55
2023/08/26 01:52:57;;;;;;;1.43;0.80;;;;;;;23.72;96.18;95301.09;5073595;28;20521;-54
2023/08/26 01:55:26;;;;;;;0.90;0.83;;;;;;;22.88;99.37;95189.78;5074010;28;20783;-54
2023/08/26 01:57:55;;;;;;;0.67;0.63;;;;;;;23.40;100.00;95303.09;5073335;28;20448;-54
2023/08/26 02:00:24;;;;;;;0.60;0.47;;;;;;;23.49;99.10;95302.88;5073225;28;20984;-54
2023/08/26 02:02:53;;;;;;;0.93;0.80;;;;;;;23.57;98.17;95293.78;5073549;28;20437;-54
2023/08/26 02:05:21;;;;;;;0.70;0.40;;;;;;;23.36;100.00;95285.97;5073551;28;20441;-54
2023/08/26 02:07:50;;;;;;;1.83;0.83;;;;;;;23.27;100.00;95277.22;5073564;28;20494;-54
2023/08/26 02:10:18;;;;;;;0.70;0.70;;;;;;;23.21;100.00;95278.63;5073695;28;20572;-55
2023/08/26 02:12:46;;;;;;;0.50;0.50;;;;;;;23.30;100.00;95290.81;5060110;28;20492;-55
2023/08/26 02:15:16;;;;;;;0.60;0.50;;;;;;;23.33;100.00;95283.94;5073456;28;20953;-55
2023/08/26 02:17:45;;;;;;;0.63;0.63;;;;;;;23.32;100.00;95290.50;5072749;28;20437;-54
2023/08/26 02:20:13;;;;;;;0.70;0.60;;;;;;;23.14;100.00;95281.16;5073261;28;20941;-55
2023/08/26 02:22:42;;;;;;;0.60;0.50;;;;;;;23.19;100.00;95294.41;5073387;28;20477;-55
2023/08/26 02:25:10;;;;;;;1.03;0.47;;;;;;;23.04;100.00;95265.47;5073518;28;20839;-55
2023/08/26 02:27:39;;;;;;;0.70;0.60;;;;;;;23.46;99.85;95301.66;5072818;28;20425;-55
2023/08/26 02:30:10;;;;;;;0.80;0.80;;;;;;;23.43;100.00;95301.59;5073330;28;20505;-55
2023/08/26 02:32:39;;;;;;;0.60;0.50;;;;;;;23.35;100.00;95306.78;5073073;28;20445;-55
2023/08/26 02:35:08;;;;;;;0.83;0.83;;;;;;;23.45;99.94;95305.53;5072872;28;20441;-54
2023/08/26 02:37:36;;;;;;;1.33;1.23;;;;;;;23.46;100.00;95312.47;5073126;28;20437;-55
2023/08/26 02:40:05;;;;;;;4.93;0.70;;;;;;;23.37;100.00;95306.47;5072659;28;20520;-54
2023/08/26 02:42:34;;;;;;;1.33;1.23;;;;;;;23.45;100.00;95300.09;5072889;28;20929;-55
2023/08/26 02:45:04;;;;;;;0.70;0.60;;;;;;;23.43;100.00;95299.66;5072549;28;20440;-54
2023/08/26 02:47:32;;;;;;;1.90;0.80;;;;;;;23.34;100.00;95297.13;5072194;28;20441;-55
2023/08/26 02:50:03;;;;;;;1.27;0.67;;;;;;;23.21;100.00;95298.34;5072783;28;20505;-55
2023/08/26 02:52:31;;;;;;;2.40;0.93;;;;;;;23.17;100.00;95291.28;5072327;28;20438;-54
2023/08/26 02:55:00;;;;;;;0.40;0.30;;;;;;;22.21;100.00;95128.66;5072648;28;20444;-54
2023/08/26 02:57:28;;;;;;;0.60;0.50;;;;;;;23.15;100.00;95293.53;5072613;28;20473;-54
2023/08/26 02:59:57;;;;;;;0.80;0.80;;;;;;;23.07;100.00;95294.50;5071763;28;20968;-55
2023/08/26 03:02:25;;;;;;;0.50;0.47;;;;;;;23.08;100.00;95290.66;5072478;28;20511;-54
2023/08/26 03:04:54;;;;;;;1.83;0.70;;;;;;;23.10;99.06;95288.38;5072130;28;20449;-54
2023/08/26 03:07:23;;;;;;;0.90;0.33;;;;;;;23.05;100.00;95297.53;5071957;28;20452;-54
2023/08/26 03:09:52;;;;;;;0.80;0.50;;;;;;;22.91;100.00;95297.19;5072310;28;20546;-54
2023/08/26 03:12:20;;;;;;;1.07;0.63;;;;;;;22.97;100.00;95295.03;5071611;28;20452;-54
2023/08/26 03:14:51;;;;;;;1.03;0.63;;;;;;;22.83;100.00;95297.34;5072434;28;20604;-55
2023/08/26 03:17:20;;;;;;;1.10;0.80;;;;;;;22.56;100.00;95299.72;5071944;28;20481;-55
2023/08/26 03:19:48;;;;;;;1.53;1.07;;;;;;;22.79;100.00;95307.28;5072365;28;21145;-55
2023/08/26 03:22:16;;;;;;;1.57;1.47;;;;;;;22.59;100.00;95315.22;5071520;28;21075;-54
2023/08/26 03:24:46;;;;;;;0.97;0.87;;;;;;;22.60;100.00;95311.41;5072544;28;20476;-55
2023/08/26 03:27:14;;;;;;;0.83;0.77;;;;;;;22.46;100.00;95313.72;5071811;28;20536;-54
2023/08/26 03:29:42;;;;;;;1.10;1.00;;;;;;;22.30;100.00;95304.00;5071708;28;20497;-54
2023/08/26 03:32:11;;;;;;;10.93;1.00;;;;;;;22.60;100.00;95316.03;5071758;28;20490;-54
2023/08/26 03:34:39;;;;;;;1.17;1.17;;;;;;;22.72;100.00;95311.38;5071795;28;20433;-54
2023/08/26 03:37:07;;;;;;;0.70;0.60;;;;;;;22.65;100.00;95313.88;5072075;28;20878;-54
2023/08/26 03:39:36;;;;;;;0.90;0.67;;;;;;;22.65;100.00;95308.47;5063707;28;20438;-54
2023/08/26 03:42:06;;;;;;;0.60;0.60;;;;;;;22.59;100.00;95311.75;5071623;28;20445;-54
2023/08/26 03:44:35;;;;;;;0.60;0.60;;;;;;;22.52;100.00;95315.03;5072186;28;20477;-54
2023/08/26 03:47:03;;;;;;;0.53;0.40;;;;;;;22.52;100.00;95316.94;5071483;28;20448;-54
2023/08/26 03:49:32;;;;;;;1.00;0.90;;;;;;;22.49;100.00;95313.03;5071540;28;20541;-54
2023/08/26 03:52:00;;;;;;;0.60;0.60;;;;;;;22.45;100.00;95316.75;5045563;28;20441;-54
2023/08/26 03:54:28;;;;;;;0.67;0.67;;;;;;;22.58;100.00;95323.69;5071306;28;20433;-54
2023/08/26 03:56:56;;;;;;;0.50;0.33;;;;;;;22.64;100.00;95322.34;5071457;28;20811;-54
2023/08/26 03:59:26;;;;;;;1.67;1.50;;;;;;;22.87;100.00;95327.97;5070756;28;20441;-54
2023/08/26 04:01:55;;;;;;;0.80;0.53;;;;;;;22.54;100.00;95287.69;5071823;28;20480;-54
2023/08/26 04:04:23;;;;;;;0.63;0.63;;;;;;;22.80;100.00;95325.06;5071642;28;20805;-55
2023/08/26 04:06:52;;;;;;;0.50;0.30;;;;;;;22.77;100.00;95318.44;5071993;28;20888;-55
2023/08/26 04:09:21;;;;;;;2.37;0.60;;;;;;;22.92;100.00;95327.72;5070330;28;20445;-55
2023/08/26 04:11:50;;;;;;;0.80;0.80;;;;;;;22.71;100.00;95320.63;5071242;28;20504;-50
2023/08/26 04:14:18;;;;;;;0.50;0.40;;;;;;;22.77;100.00;95325.78;5071439;28;20434;-50
2023/08/26 04:16:48;;;;;;;0.60;0.60;;;;;;;22.79;100.00;95316.19;5071511;28;20437;-50
2023/08/26 04:19:16;;;;;;;0.73;0.60;;;;;;;22.32;100.00;95226.91;5070831;28;20437;-50
2023/08/26 04:21:44;;;;;;;0.70;0.53;;;;;;;22.98;100.00;95320.91;5071266;28;20965;-50
2023/08/26 04:24:13;;;;;;;0.70;0.70;;;;;;;22.98;99.34;95329.81;5074922;28;20476;-50
2023/08/26 04:26:41;;;;;;;0.60;0.60;;;;;;;23.01;100.00;95322.91;5075095;28;20529;-50
2023/08/26 04:29:09;;;;;;;0.90;0.83;;;;;;;23.11;99.38;95338.63;5074999;28;20442;-56
2023/08/26 04:31:38;;;;;;;1.50;1.10;;;;;;;23.23;98.75;95336.63;5074587;28;20526;-55
2023/08/26 04:34:08;;;;;;;0.50;0.40;;;;;;;22.65;100.00;95321.19;5049189;28;20496;-56
2023/08/26 04:36:36;;;;;;;0.87;0.60;;;;;;;22.36;100.00;95346.63;5074356;28;20450;-54
2023/08/26 04:39:11;;;;;;;1.00;0.77;;;;;;;22.17;100.00;95353.75;5074694;28;20441;-55
2023/08/26 04:41:39;;;;;;;0.90;0.87;;;;;;;22.00;100.00;95354.81;5074627;28;20524;-56
2023/08/26 04:44:12;;;;;;;0.90;0.90;;;;;;;21.80;100.00;95326.81;5074674;28;20917;-55
2023/08/26 04:46:42;;;;;;;2.03;0.80;;;;;;;21.89;100.00;95364.50;5073735;28;20445;-55
2023/08/26 04:49:12;;;;;;;4.73;1.20;;;;;;;22.25;100.00;95363.63;5074385;28;20507;-55
2023/08/26 04:51:40;;;;;;;0.93;0.60;;;;;;;22.64;100.00;95358.22;5073785;28;20575;-56
2023/08/26 04:54:09;;;;;;;0.57;0.50;;;;;;;22.83;100.00;95357.59;5074619;28;20516;-55
2023/08/26 04:56:37;;;;;;;0.70;0.67;;;;;;;23.03;100.00;95361.19;5074445;28;20444;-55
2023/08/26 04:59:06;;;;;;;0.63;0.63;;;;;;;23.14;100.00;95356.88;5074389;28;20524;-55
2023/08/26 05:01:34;;;;;;;0.90;0.60;;;;;;;22.97;100.00;95359.91;5074217;28;20433;-55
2023/08/26 05:04:03;;;;;;;0.87;0.87;;;;;;;22.94;100.00;95361.38;5074446;28;20478;-55
2023/08/26 05:06:33;;;;;;;2.13;0.57;;;;;;;22.76;100.00;95324.97;5074548;28;20437;-54
2023/08/26 05:09:01;;;;;;;2.10;1.77;;;;;;;23.34;100.00;95369.34;5074137;28;20499;-54
2023/08/26 05:11:29;;;;;;;1.00;0.90;;;;;;;23.26;100.00;95365.69;5048039;28;20512;-54
2023/08/26 05:13:58;;;;;;;1.00;0.60;;;;;;;23.24;99.59;95372.56;5073955;28;20445;-55
2023/08/26 05:16:26;;;;;;;1.60;0.83;;;;;;;23.18;100.00;95363.13;5074296;28;20521;-54
2023/08/26 05:18:55;;;;;;;1.30;1.20;;;;;;;23.03;100.00;95363.91;5074066;28;20441;-54
2023/08/26 05:21:23;;;;;;;1.40;1.07;;;;;;;23.46;98.71;95366.59;5073808;28;20877;-54
2023/08/26 05:23:53;;;;;;;0.50;0.40;;;;;;;23.49;98.29;95357.00;5074168;28;20882;-54
2023/08/26 05:26:21;;;;;;;3.33;0.60;;;;;;;23.77;94.72;95349.53;5074072;28;20448;-54
2023/08/26 05:28:49;;;;;;;1.07;1.00;;;;;;;23.77;93.93;95360.38;5073763;28;20436;-54
2023/08/26 05:31:17;;;;;;;0.70;0.70;;;;;;;23.77;92.68;95350.34;5073810;28;20468;-53
2023/08/26 05:33:46;;;;;;;0.73;0.60;;;;;;;24.05;91.75;95350.19;5072842;28;20442;-53
2023/08/26 05:36:14;;;;;;;0.80;0.80;;;;;;;24.10;89.90;95352.66;5073789;28;20437;-53
2023/08/26 05:38:43;;;;;;;1.43;0.90;;;;;;;24.01;88.98;95350.09;5070855;28;20473;-53
2023/08/26 05:41:14;;;;;;;1.00;1.00;;;;;;;24.08;88.48;95356.84;5073653;28;20441;-53
2023/08/26 05:43:42;;;;;;;0.50;0.37;;;;;;;24.33;88.27;95358.16;5073306;28;20483;-53
2023/08/26 05:46:10;;;;;;;0.90;0.80;;;;;;;24.51;86.15;95364.75;5073511;28;20870;-53
2023/08/26 05:48:39;;;;;;;0.83;0.80;;;;;;;24.28;87.25;95361.16;5073363;28;20480;-53
2023/08/26 05:51:07;;;;;;;1.17;1.07;;;;;;;24.30;87.22;95365.06;5073228;28;21069;-53
2023/08/26 05:53:35;;;;;;;1.23;1.13;;;;;;;24.35;87.08;95366.72;5073534;28;20441;-53
2023/08/26 05:56:04;;;;;;;1.33;1.23;;;;;;;24.27;88.05;95365.00;5073228;28;20476;-53
2023/08/26 05:58:33;;;;;;;8.03;1.93;;;;;;;24.24;86.64;95368.41;5073385;28;20471;-53
2023/08/26 06:01:03;;;;;;;1.80;1.43;;;;;;;24.40;86.79;95363.72;5072846;28;20448;-53
2023/08/26 06:03:32;;;;;;;1.47;0.83;;;;;;;24.61;85.59;95354.13;5072904;28;20512;-53
2023/08/26 06:06:00;;;;;;;1.30;1.23;;;;;;;25.09;83.63;95349.22;5072035;28;20445;-54
2023/08/26 06:08:28;;;;;;;2.37;2.17;;;;;;;24.72;82.81;95324.50;5073271;28;20437;-54
2023/08/26 06:10:57;;;;;;;2.90;1.57;;;;;;;24.54;82.96;95272.66;5072368;28;20526;-54
2023/08/26 06:13:25;;;;;;;3.57;1.47;;;;;;;25.68;79.52;95362.25;5072682;28;20532;-54
2023/08/26 06:15:56;;;;;;;1.33;1.30;;;;;;;25.96;77.33;95359.22;5072500;28;20445;-54
2023/08/26 06:18:24;;;;;;;1.37;0.80;;;;;;;26.27;75.80;95356.97;5072806;28;20449;-54
2023/08/26 06:20:53;;;;;;;1.20;1.10;;;;;;;26.38;75.98;95357.13;5072327;28;20529;-54
2023/08/26 06:23:22;;;;;;;1.03;1.03;;;;;;;26.71;75.08;95357.16;5072845;28;20468;-54
2023/08/26 06:25:53;;;;;;;2.00;1.50;;;;;;;26.83;72.36;95354.22;5072172;28;20504;-54
2023/08/26 06:28:22;;;;;;;0.90;0.90;;;;;;;26.56;73.07;95360.06;5072054;28;20449;-54
2023/08/26 06:30:51;;;;;;;1.00;0.90;;;;;;;26.72;72.93;95353.25;5072596;28;22358;-54
2023/08/26 06:33:21;;;;;;;2.00;1.90;;;;;;;27.07;71.46;95350.97;5073150;28;20468;-54
2023/08/26 06:35:49;;;;;;;1.53;1.20;;;;;;;27.11;69.74;95315.63;5046274;28;20444;-54
2023/08/26 06:38:17;;;;;;;1.00;0.97;;;;;;;27.77;67.74;95358.22;5071846;28;20560;-54
2023/08/26 06:40:53;;;;;;;1.30;1.20;;;;;;;28.25;66.75;95350.78;5072409;28;20449;-53
2023/08/26 06:43:22;;;;;;;1.80;1.70;;;;;;;28.22;65.51;95352.34;5072265;28;20433;-57
2023/08/26 06:45:51;;;;;;;0.93;0.93;;;;;;;28.22;65.19;95330.53;5072825;28;20484;-53
2023/08/26 06:48:21;;;;;;;13.67;2.53;;;;;;;27.35;66.98;95350.44;5072023;28;20516;-55
2023/08/26 06:50:50;;;;;;;2.40;1.23;;;;;;;27.95;66.50;95337.34;5071611;28;20444;-52
2023/08/26 06:53:21;;;;;;;1.60;1.50;;;;;;;27.58;66.90;95310.22;5070600;28;20802;-55
2023/08/26 06:55:50;;;;;;;1.80;1.70;;;;;;;27.95;66.65;95358.38;5072031;28;20464;-53
2023/08/26 06:58:19;;;;;;;2.07;1.90;;;;;;;27.92;66.75;95353.66;5071771;28;20433;-54
2023/08/26 07:00:48;;;;;;;1.10;1.00;;;;;;;27.84;66.83;95352.84;5072399;28;20445;-54
2023/08/26 07:03:16;;;;;;;1.00;0.70;;;;;;;28.67;65.09;95356.47;5065621;28;20477;-54
2023/08/26 07:05:47;;;;;;;2.20;0.83;;;;;;;28.66;64.50;95354.94;5065862;28;20445;-54
2023/08/26 07:08:16;;;;;;;1.43;1.20;;;;;;;29.12;64.54;95351.56;5072256;28;20443;-54
2023/08/26 07:10:45;;;;;;;0.70;0.70;;;;;;;29.58;62.93;95350.47;5071863;28;20445;-54
2023/08/26 07:13:14;;;;;;;0.50;0.50;;;;;;;29.81;62.26;95324.72;5071520;28;20598;-54
2023/08/26 07:15:42;;;;;;;1.73;1.63;;;;;;;29.71;62.68;95347.34;5071750;28;20449;-53
2023/08/26 07:18:11;;;;;;;1.10;0.90;;;;;;;30.01;60.60;95343.06;5071582;28;20469;-54
2023/08/26 07:20:39;;;;;;;0.60;0.60;;;;;;;30.35;59.47;95334.44;5071941;28;20882;-53
2023/08/26 07:23:09;;;;;;;1.10;1.00;;;;;;;30.54;58.91;95342.16;5071491;28;20481;-53
2023/08/26 07:25:37;;;;;;;1.53;1.13;;;;;;;30.54;57.96;95312.06;5071256;28;20490;-54
2023/08/26 07:28:06;;;;;;;0.87;0.70;;;;;;;31.15;57.76;95332.53;5071563;28;20448;-55
2023/08/26 07:30:34;;;;;;;0.93;0.73;;;;;;;30.86;56.04;95325.63;5071552;28;20487;-53
2023/08/26 07:33:02;;;;;;;0.90;0.90;;;;;;;31.55;56.44;95323.66;5071496;28;20468;-53
2023/08/26 07:35:31;;;;;;;1.67;1.57;;;;;;;30.93;54.88;95309.97;5071293;28;20807;-54
2023/08/26 07:37:59;;;;;;;1.70;1.50;;;;;;;31.49;55.24;95322.56;5071869;28;20473;-54
2023/08/26 07:40:29;;;;;;;1.00;1.00;;;;;;;31.56;56.03;95306.06;5070798;28;20461;-53
2023/08/26 07:42:59;;;;;;;1.00;1.00;;;;;;;31.98;52.84;95321.31;5071541;28;20506;-53
2023/08/26 07:45:28;;;;;;;0.77;0.73;;;;;;;31.78;54.25;95317.59;5070478;28;20432;-53
2023/08/26 07:47:57;;;;;;;0.67;0.63;;;;;;;32.30;53.41;95321.84;5071581;28;20535;-53
2023/08/26 07:50:28;;;;;;;1.30;1.20;;;;;;;31.94;50.78;95315.91;5039445;28;20502;-53
2023/08/26 07:52:57;;;;;;;5.00;1.10;;;;;;;32.70;50.28;95311.97;5066002;28;20472;-53
2023/08/26 07:55:26;;;;;;;0.97;0.67;;;;;;;32.91;48.97;95273.28;5071409;28;20448;-53
2023/08/26 07:57:55;;;;;;;1.07;1.07;;;;;;;32.92;48.57;95307.75;5071206;28;20464;-53
2023/08/26 08:00:24;;;;;;;0.90;0.90;;;;;;;33.37;49.00;95300.06;5071724;28;20498;-53
2023/08/26 08:02:54;;;;;;;1.00;0.90;;;;;;;33.05;47.68;95305.25;5071337;28;20429;-53
2023/08/26 08:05:24;;;;;;;0.80;0.80;;;;;;;33.57;48.18;95291.94;5071013;28;20440;-53
2023/08/26 08:07:52;;;;;;;1.60;1.50;;;;;;;33.57;47.18;95253.47;5071420;28;20432;-53
2023/08/26 08:10:20;;;;;;;3.07;1.30;;;;;;;34.11;46.61;95281.59;5071842;28;20433;-53
2023/08/26 08:12:49;;;;;;;0.57;0.50;;;;;;;34.69;45.57;95282.81;5070673;28;20483;-54
2023/08/26 08:15:18;;;;;;;1.33;1.23;;;;;;;35.02;44.18;95273.44;5071302;28;20436;-53
2023/08/26 08:17:47;;;;;;;0.90;0.90;;;;;;;34.88;44.20;95262.75;5070903;28;20933;-54
2023/08/26 08:20:15;;;;;;;0.67;0.60;;;;;;;34.82;42.62;95229.44;5071425;28;20443;-53
2023/08/26 08:22:44;;;;;;;1.23;1.23;;;;;;;35.40;44.52;95262.75;5071406;28;20772;-54
2023/08/26 08:25:12;;;;;;;1.23;1.23;;;;;;;35.25;39.79;95270.59;5071653;28;20505;-54
2023/08/26 08:27:41;;;;;;;0.57;0.53;;;;;;;35.24;40.97;95241.50;5071486;28;20441;-54
2023/08/26 08:30:10;;;;;;;1.60;0.60;;;;;;;35.93;40.17;95256.69;5071018;28;20441;-54
2023/08/26 08:32:40;;;;;;;1.13;1.03;;;;;;;35.41;39.30;95256.81;5071016;28;20468;-54
2023/08/26 08:35:09;;;;;;;0.77;0.77;;;;;;;35.49;41.83;95251.91;5070253;28;20779;-54
2023/08/26 08:37:37;;;;;;;0.63;0.63;;;;;;;35.52;41.39;95249.06;5071393;28;20497;-54
2023/08/26 08:40:07;;;;;;;3.03;1.50;;;;;;;35.36;39.78;95240.03;5071357;28;20229;-54
2023/08/26 08:42:37;;;;;;;0.87;0.70;;;;;;;36.42;38.65;95228.97;5071324;28;20521;-54
2023/08/26 08:45:07;;;;;;;2.70;1.57;;;;;;;36.47;37.07;95243.06;5070704;28;20714;-55
2023/08/26 08:47:35;;;;;;;0.50;0.47;;;;;;;37.32;36.89;95234.94;5070624;28;20665;-54
2023/08/26 08:50:08;;;;;;;0.67;0.50;;;;;;;37.35;38.88;95234.84;5070916;28;20190;-55
2023/08/26 08:52:36;;;;;;;0.50;0.40;;;;;;;36.67;38.33;95185.66;5070639;28;20261;-55
2023/08/26 08:55:05;;;;;;;1.10;0.80;;;;;;;36.77;38.51;95214.94;5070296;28;20289;-55
2023/08/26 08:57:36;;;;;;;0.60;0.60;;;;;;;36.97;39.35;95219.50;5071317;28;20547;-55
2023/08/26 09:00:06;;;;;;;0.40;0.30;;;;;;;36.95;37.02;95213.63;5071054;28;20807;-55
2023/08/26 09:02:39;;;;;;;0.97;0.90;;;;;;;37.32;36.75;95213.59;5070736;28;20264;-55
2023/08/26 09:05:10;;;;;;;2.92;0.68;;;;;;;38.18;36.81;95206.75;5071386;28;20271;-55
2023/08/26 09:07:40;;;;;;;0.50;0.50;;;;;;;37.60;37.41;95205.66;5070877;28;20205;-55
2023/08/26 09:10:10;;;;;;;0.80;0.80;;;;;;;37.62;38.30;95195.69;5073435;28;20203;-55
2023/08/26 09:12:39;;;;;;;1.52;1.13;;;;;;;36.91;36.62;95191.63;5073716;28;20312;-56
2023/08/26 09:15:08;;;;;;;0.52;0.52;;;;;;;37.75;36.71;95192.88;5074603;28;20206;-59
2023/08/26 09:17:36;;;;;;;0.57;0.40;;;;;;;38.64;35.11;95180.16;5074240;28;20202;-59
2023/08/26 09:20:06;;;;;;;0.80;0.52;;;;;;;39.18;34.77;95179.66;5074546;28;20619;-59
2023/08/26 09:22:36;;;;;;;0.88;0.88;;;;;;;39.15;34.92;95178.53;5073677;28;20198;-59
2023/08/26 09:25:06;;;;;;;0.60;0.55;;;;;;;39.05;33.39;95167.88;5073978;28;20197;-59
2023/08/26 09:27:35;;;;;;;0.80;0.80;;;;;;;39.38;34.93;95168.91;5073761;28;20828;-59
2023/08/26 09:30:04;;;;;;;1.45;1.35;;;;;;;39.15;34.59;95161.13;5074632;28;20202;-59
2023/08/26 09:32:34;;;;;;;0.73;0.70;;;;;;;38.67;34.81;95163.41;5074257;28;20249;-59
2023/08/26 09:35:10;;;;;;;0.55;0.55;;;;;;;38.32;33.64;95156.44;5074181;28;20194;-59
2023/08/26 09:37:43;;;;;;;0.65;0.65;;;;;;;38.81;33.15;95155.78;5073382;28;20290;-60
2023/08/26 09:40:13;;;;;;;0.63;0.63;;;;;;;38.95;33.26;95146.91;5073671;28;20198;-60
2023/08/26 09:42:42;;;;;;;0.70;0.70;;;;;;;39.32;32.86;95135.47;5073792;28;20232;-60
2023/08/26 09:45:11;;;;;;;1.00;0.98;;;;;;;38.70;33.02;95139.56;5074036;28;20233;-60
2023/08/26 09:47:40;;;;;;;0.50;0.50;;;;;;;39.87;33.00;95149.41;5073919;28;20290;-60
2023/08/26 09:50:10;;;;;;;0.60;0.55;;;;;;;40.41;32.68;95143.00;5073317;28;20674;-58
2023/08/26 09:52:45;;;;;;;0.82;0.55;;;;;;;40.41;31.04;95143.78;5073606;28;20202;-58
2023/08/26 09:55:14;;;;;;;1.02;1.02;;;;;;;40.26;31.29;95147.69;5047407;28;20194;-58
2023/08/26 09:57:43;;;;;;;1.60;1.50;;;;;;;39.17;32.31;95136.47;5073438;28;20285;-58
2023/08/26 10:00:12;;;;;;;0.55;0.55;;;;;;;39.85;33.41;95141.53;5074121;28;20277;-58
2023/08/26 10:02:47;;;;;;;0.93;0.60;;;;;;;40.66;31.61;95134.31;5073130;28;20201;-58
2023/08/26 10:05:21;;;;;;;0.52;0.50;;;;;;;40.69;31.98;95127.06;5073549;28;20200;-57
2023/08/26 10:07:53;;;;;;;0.70;0.70;;;;;;;40.43;32.65;95118.34;5073413;28;20215;-58
2023/08/26 10:10:30;;;;;;;0.52;0.52;;;;;;;40.56;31.43;95132.81;5073483;28;20285;-59
2023/08/26 10:13:03;;;;;;;0.50;0.50;;;;;;;39.63;30.78;95129.03;5073321;28;20669;-55
2023/08/26 10:15:33;;;;;;;0.50;0.50;;;;;;;39.48;32.29;95131.63;5073495;28;20635;-57
2023/08/26 10:18:08;;;;;;;0.77;0.60;;;;;;;39.26;31.21;95126.22;5073812;28;20260;-57
2023/08/26 10:20:37;;;;;;;0.77;0.77;;;;;;;40.58;30.22;95125.53;5073022;28;20194;-57
2023/08/26 10:23:09;;;;;;;0.43;0.40;;;;;;;41.10;29.64;95127.03;5073361;28;20678;-57
2023/08/26 10:25:38;;;;;;;1.95;0.50;;;;;;;41.78;28.54;95114.09;5073316;28;20190;-57
2023/08/26 10:28:07;;;;;;;0.50;0.50;;;;;;;41.59;28.46;95103.56;5073599;28;20274;-57
2023/08/26 10:30:36;;;;;;;1.50;0.88;;;;;;;41.48;29.68;95103.31;5072926;28;20532;-57
2023/08/26 10:33:05;;;;;;;0.82;0.82;;;;;;;41.76;28.83;95066.47;5072959;28;20241;-56
2023/08/26 10:35:34;;;;;;;1.13;0.77;;;;;;;41.90;28.46;95097.59;5072732;28;20198;-56
2023/08/26 10:38:12;;;;;;;0.95;0.90;;;;;;;40.15;29.33;95109.31;5073047;28;20201;-56
2023/08/26 10:40:41;;;;;;;2.55;1.17;;;;;;;40.78;28.40;95104.78;5047575;28;20202;-56
2023/08/26 10:43:10;;;;;;;0.70;0.70;;;;;;;40.33;28.79;95100.91;5072425;28;20278;-57
2023/08/26 10:45:47;;;;;;;0.40;0.40;;;;;;;41.52;27.34;95084.47;5073007;28;20195;-56
2023/08/26 10:48:15;;;;;;;1.23;1.23;;;;;;;40.38;27.64;95086.38;5072148;28;20678;-57
2023/08/26 10:50:58;;;;;;;1.23;1.23;;;;;;;40.49;28.07;95078.34;5072492;28;20255;-59
2023/08/26 10:53:27;;;;;;;0.93;0.80;;;;;;;41.23;27.82;95078.75;5072327;28;20259;-58
2023/08/26 10:56:14;;;;;;;0.77;0.77;;;;;;;40.29;29.04;95069.75;5072469;28;20204;-57
2023/08/26 10:58:46;;;;;;;0.60;0.60;;;;;;;40.11;29.81;95069.81;5049287;28;20240;-55
2023/08/26 11:01:15;;;;;;;0.90;0.90;;;;;;;39.75;29.72;95040.09;5072386;28;20209;-57
2023/08/26 11:03:45;;;;;;;0.50;0.43;;;;;;;40.66;29.75;95041.88;5071994;28;20206;-57
2023/08/26 11:06:19;;;;;;;0.80;0.68;;;;;;;41.01;29.86;95067.94;5071999;28;20190;-57
2023/08/26 11:08:56;;;;;;;2.58;0.40;;;;;;;39.61;30.31;95018.53;5072715;28;20252;-57
2023/08/26 11:11:25;;;;;;;0.80;0.80;;;;;;;39.97;30.06;95064.88;5072391;28;20236;-57
2023/08/26 11:13:54;;;;;;;0.70;0.70;;;;;;;40.41;28.50;95048.56;5071806;28;20622;-56
2023/08/26 11:16:23;;;;;;;1.13;0.70;;;;;;;40.96;28.05;95044.31;5072408;28;20255;-56
2023/08/26 11:18:53;;;;;;;0.95;0.95;;;;;;;40.48;28.42;95059.41;5071469;28;20202;-56
2023/08/26 11:21:22;;;;;;;0.77;0.77;;;;;;;40.66;27.35;95061.31;5072035;28;20195;-57
2023/08/26 11:23:54;;;;;;;0.60;0.60;;;;;;;40.13;27.94;95017.34;5071280;28;20650;-57
2023/08/26 11:26:25;;;;;;;1.65;0.65;;;;;;;40.29;28.32;95050.31;5071685;28;20290;-57
2023/08/26 11:28:53;;;;;;;3.03;0.60;;;;;;;39.69;28.96;95016.22;5067450;28;20195;-56
2023/08/26 11:31:21;;;;;;;0.68;0.68;;;;;;;37.46;31.73;95043.72;5061576;28;20198;-57
2023/08/26 11:33:50;;;;;;;0.82;0.82;;;;;;;38.21;32.38;95048.06;5071062;28;20214;-57
2023/08/26 11:36:21;;;;;;;0.88;0.85;;;;;;;37.76;31.76;95053.31;5071545;28;20202;-56
2023/08/26 11:38:49;;;;;;;3.05;1.20;;;;;;;38.22;31.12;95046.84;5070667;28;20194;-56
2023/08/26 11:41:22;;;;;;;0.85;0.80;;;;;;;38.44;33.67;95022.66;5071757;28;20256;-56